createdAt,value
2022-09-12T00:02:16.762Z,15.77
2022-09-12T00:04:46.033Z,15.77
2022-09-12T00:07:12.521Z,15.77
2022-09-12T00:09:39.723Z,15.74
2022-09-12T00:12:06.734Z,15.72
2022-09-12T00:14:33.519Z,15.72
2022-09-12T00:17:00.730Z,15.70
2022-09-12T00:19:28.745Z,15.66
2022-09-12T00:21:55.946Z,15.65
2022-09-12T00:24:22.817Z,15.66
2022-09-12T00:26:49.397Z,15.65
2022-09-12T00:29:18.624Z,15.64
2022-09-12T00:31:45.573Z,15.61
2022-09-12T00:34:12.740Z,15.62
2022-09-12T00:36:41.271Z,15.61
2022-09-12T00:39:09.162Z,15.59
2022-09-12T00:41:38.480Z,15.58
2022-09-12T00:44:11.041Z,15.55
2022-09-12T00:46:59.199Z,15.49
2022-09-12T00:49:35.011Z,15.44
2022-09-12T00:52:10.724Z,15.36
2022-09-12T00:54:57.730Z,15.33
2022-09-12T00:57:29.842Z,15.27
2022-09-12T01:00:02.087Z,15.20
2022-09-12T01:02:28.756Z,15.16
2022-09-12T01:04:55.993Z,15.14
2022-09-12T01:07:22.586Z,15.11
2022-09-12T01:09:49.385Z,15.06
2022-09-12T01:12:16.832Z,15.04
2022-09-12T01:14:43.359Z,15.01
2022-09-12T01:17:16.810Z,15.01
2022-09-12T01:19:43.249Z,15.01
2022-09-12T01:22:47.098Z,14.98
2022-09-12T01:25:33.707Z,14.95
2022-09-12T01:28:34.813Z,14.91
2022-09-12T01:31:13.771Z,14.89
2022-09-12T01:33:55.970Z,14.90
2022-09-12T01:36:38.368Z,14.88
2022-09-12T01:39:11.775Z,14.88
2022-09-12T01:42:21.575Z,14.87
2022-09-12T01:45:14.616Z,14.89
2022-09-12T01:47:47.474Z,14.88
2022-09-12T01:50:25.026Z,14.88
2022-09-12T01:52:57.248Z,14.87
2022-09-12T01:55:29.743Z,14.86
2022-09-12T01:58:13.655Z,14.86
2022-09-12T02:00:48.278Z,14.85
2022-09-12T02:03:20.540Z,14.85
2022-09-12T02:05:59.637Z,14.85
2022-09-12T02:08:29.482Z,14.81
2022-09-12T02:11:11.297Z,14.79
2022-09-12T02:13:45.584Z,14.78
2022-09-12T02:16:21.215Z,14.76
2022-09-12T02:18:55.722Z,14.75
2022-09-12T02:21:24.725Z,14.74
2022-09-12T02:36:14.552Z,14.65
2022-09-12T02:38:47.090Z,14.65
2022-09-12T02:41:19.290Z,14.63
2022-09-12T02:43:46.781Z,14.61
2022-09-12T02:46:21.290Z,14.57
2022-09-12T02:48:47.827Z,14.53
2022-09-12T02:51:14.891Z,14.51
2022-09-12T02:53:42.076Z,14.49
2022-09-12T02:56:14.364Z,14.47
2022-09-12T02:58:41.160Z,14.44
2022-09-12T03:01:17.387Z,14.38
2022-09-12T03:04:08.714Z,14.32
2022-09-12T03:06:57.937Z,14.23
2022-09-12T03:09:43.723Z,14.17
2022-09-12T03:12:30.863Z,14.18
2022-09-12T03:15:07.284Z,14.16
2022-09-12T03:18:14.732Z,14.17
2022-09-12T03:20:53.670Z,14.20
2022-09-12T03:23:30.758Z,14.15
2022-09-12T03:26:03.131Z,14.09
2022-09-12T03:28:31.164Z,14.07
2022-09-12T03:30:58.332Z,14.03
2022-09-12T03:33:26.801Z,13.99
2022-09-12T03:35:53.865Z,13.93
2022-09-12T03:38:20.409Z,13.89
2022-09-12T03:40:50.310Z,13.90
2022-09-12T03:43:19.481Z,13.92
2022-09-12T03:45:52.204Z,13.93
2022-09-12T03:48:18.795Z,13.89
2022-09-12T03:50:45.510Z,13.87
2022-09-12T03:53:16.547Z,13.85
2022-09-12T03:55:43.776Z,13.86
2022-09-12T03:58:10.256Z,13.86
2022-09-12T04:00:38.823Z,13.88
2022-09-12T04:03:05.325Z,13.88
2022-09-12T04:21:30.037Z,13.72
2022-09-12T04:23:56.871Z,13.69
2022-09-12T04:26:23.738Z,13.70
2022-09-12T04:28:54.987Z,13.69
2022-09-12T04:31:22.738Z,13.71
2022-09-12T04:33:57.332Z,13.72
2022-09-12T04:36:25.244Z,13.74
2022-09-12T04:38:52.205Z,13.76
2022-09-12T04:41:24.468Z,13.79
2022-09-12T04:43:58.259Z,13.81
2022-09-12T04:46:26.426Z,13.82
2022-09-12T04:48:56.633Z,13.83
2022-09-12T04:51:29.631Z,13.82
2022-09-12T04:53:59.052Z,13.84
2022-09-12T04:56:28.629Z,13.83
2022-09-12T04:58:58.706Z,13.80
2022-09-12T05:01:29.773Z,13.79
2022-09-12T05:03:57.754Z,13.76
2022-09-12T05:06:30.099Z,13.76
2022-09-12T05:08:58.462Z,13.77
2022-09-12T05:11:46.723Z,13.79
2022-09-12T05:14:16.375Z,13.81
2022-09-12T05:16:48.661Z,13.83
2022-09-12T05:19:16.121Z,13.87
2022-09-12T05:21:42.820Z,13.89
2022-09-12T05:24:11.312Z,13.92
2022-09-12T05:26:37.979Z,13.94
2022-09-12T05:29:05.626Z,13.95
2022-09-12T05:31:32.266Z,13.97
2022-09-12T05:33:59.198Z,13.94
2022-09-12T05:36:29.290Z,13.95
2022-09-12T05:38:56.762Z,13.97
2022-09-12T05:41:25.682Z,13.99
2022-09-12T05:43:54.686Z,14.00
2022-09-12T05:46:23.467Z,14.03
2022-09-12T05:48:55.588Z,14.04
2022-09-12T05:51:26.765Z,14.05
2022-09-12T05:53:57.868Z,14.06
2022-09-12T05:56:27.388Z,14.07
2022-09-12T05:59:07.597Z,14.09
2022-09-12T06:01:35.384Z,14.09
2022-09-12T06:04:05.002Z,14.08
2022-09-12T06:06:32.898Z,14.08
2022-09-12T06:09:03.213Z,14.08
2022-09-12T06:11:33.351Z,14.08
2022-09-12T06:14:00.860Z,14.08
2022-09-12T06:16:30.341Z,14.09
2022-09-12T06:19:07.539Z,14.07
2022-09-12T06:21:38.113Z,14.06
2022-09-12T06:24:04.967Z,14.08
2022-09-12T06:26:31.693Z,14.10
2022-09-12T06:29:00.701Z,14.11
2022-09-12T06:31:31.465Z,14.12
2022-09-12T06:34:02.074Z,14.14
2022-09-12T06:36:31.588Z,14.14
2022-09-12T06:39:04.098Z,14.16
2022-09-12T06:41:33.911Z,14.22
2022-09-12T06:44:00.993Z,14.32
2022-09-12T06:46:28.395Z,14.35
2022-09-12T06:49:00.616Z,14.37
2022-09-12T06:51:28.821Z,14.39
2022-09-12T06:53:59.424Z,14.40
2022-09-12T06:56:27.906Z,14.42
2022-09-12T06:58:57.422Z,14.43
2022-09-12T07:01:26.690Z,14.47
2022-09-12T07:03:56.018Z,14.50
2022-09-12T07:06:29.829Z,14.57
2022-09-12T07:08:58.523Z,14.63
2022-09-12T07:11:30.468Z,14.70
2022-09-12T07:13:59.923Z,14.77
2022-09-12T07:16:26.899Z,14.83
2022-09-12T07:18:55.642Z,14.90
2022-09-12T07:21:22.870Z,14.98
2022-09-12T07:23:55.306Z,15.05
2022-09-12T07:26:21.996Z,15.12
2022-09-12T07:29:07.875Z,15.19
2022-09-12T07:31:42.928Z,15.27
2022-09-12T07:34:46.068Z,15.34
2022-09-12T07:37:12.561Z,15.44
2022-09-12T07:39:39.310Z,15.51
2022-09-12T08:22:25.602Z,16.62
2022-09-12T08:24:52.619Z,16.72
2022-09-12T08:27:19.433Z,16.78
2022-09-12T08:29:46.033Z,16.85
2022-09-12T08:32:12.556Z,16.96
2022-09-12T08:34:39.156Z,17.03
2022-09-12T08:37:05.884Z,17.10
2022-09-12T08:39:33.263Z,17.17
2022-09-12T08:42:07.078Z,17.27
2022-09-12T08:45:01.814Z,17.40
2022-09-12T08:47:40.653Z,17.49
2022-09-12T08:50:15.784Z,17.58
2022-09-12T08:53:02.479Z,17.69
2022-09-12T08:55:38.186Z,17.76
2022-09-12T08:58:17.558Z,17.85
2022-09-12T09:01:02.916Z,17.94
2022-09-12T09:04:17.649Z,18.05
2022-09-12T09:07:08.534Z,18.15
2022-09-12T09:10:19.739Z,18.26
2022-09-12T09:13:35.761Z,18.37
2022-09-12T09:16:16.247Z,18.44
2022-09-12T09:18:46.177Z,18.52
2022-09-12T09:21:24.980Z,18.60
2022-09-12T09:24:00.204Z,18.69
2022-09-12T09:26:33.711Z,18.79
2022-09-12T09:29:10.962Z,18.88
2022-09-12T09:31:42.417Z,18.97
2022-09-12T09:34:24.160Z,19.05
2022-09-12T09:36:55.941Z,19.13
2022-09-12T09:39:50.010Z,19.25
2022-09-12T09:42:50.933Z,19.34
2022-09-12T09:45:21.197Z,19.41
2022-09-12T09:48:01.648Z,19.50
2022-09-12T09:50:40.409Z,19.59
2022-09-12T09:53:22.439Z,19.69
2022-09-12T09:55:50.121Z,19.74
2022-09-12T09:58:35.724Z,19.80
2022-09-12T10:01:06.163Z,19.88
2022-09-12T10:03:40.202Z,19.93
2022-09-12T10:06:31.109Z,19.97
2022-09-12T10:09:07.489Z,20.06
2022-09-12T10:11:34.219Z,20.11
2022-09-12T10:14:01.456Z,20.19
2022-09-12T10:16:34.626Z,20.25
2022-09-12T10:19:03.467Z,20.33
2022-09-12T10:21:42.871Z,20.42
2022-09-12T10:24:30.670Z,20.49
2022-09-12T10:27:07.178Z,20.57
2022-09-12T10:29:43.949Z,20.61
2022-09-12T10:32:17.543Z,20.67
2022-09-12T10:34:45.939Z,20.77
2022-09-12T10:37:25.396Z,20.87
2022-09-12T10:39:59.009Z,20.94
2022-09-12T10:42:58.029Z,21.00
2022-09-12T10:45:33.215Z,21.07
2022-09-12T10:48:24.720Z,21.13
2022-09-12T10:50:51.919Z,21.18
2022-09-12T10:53:34.514Z,21.26
2022-09-12T10:56:10.201Z,21.34
2022-09-12T10:58:42.956Z,21.41
2022-09-12T11:01:44.445Z,21.47
2022-09-12T11:04:33.982Z,21.57
2022-09-12T11:07:34.220Z,21.62
2022-09-12T11:10:18.333Z,21.73
2022-09-12T11:12:49.802Z,21.79
2022-09-12T11:15:44.771Z,21.87
2022-09-12T11:18:37.459Z,21.96
2022-09-12T11:21:09.999Z,22.08
2022-09-12T11:23:57.529Z,22.10
2022-09-12T11:26:45.188Z,22.17
2022-09-12T11:29:46.940Z,22.23
2022-09-12T11:32:48.347Z,22.31
2022-09-12T11:35:28.044Z,22.38
2022-09-12T11:38:34.963Z,22.47
2022-09-12T11:41:08.342Z,22.55
2022-09-12T11:43:46.878Z,22.59
2022-09-12T11:46:43.586Z,22.64
2022-09-12T11:49:37.392Z,22.69
2022-09-12T11:52:11.015Z,22.75
2022-09-12T11:54:54.010Z,22.78
2022-09-12T11:57:37.816Z,22.86
2022-09-12T12:00:17.920Z,22.91
2022-09-12T12:03:14.753Z,22.92
2022-09-12T12:06:01.904Z,22.96
2022-09-12T12:08:31.210Z,22.96
2022-09-12T12:11:00.739Z,23.03
2022-09-12T12:13:31.188Z,23.06
2022-09-12T12:16:21.423Z,23.09
2022-09-12T12:18:57.118Z,23.16
2022-09-12T12:21:32.119Z,23.19
2022-09-12T12:24:25.898Z,23.24
2022-09-12T12:27:01.877Z,23.30
2022-09-12T12:29:44.314Z,23.36
2022-09-12T12:32:14.906Z,23.38
2022-09-12T12:34:45.752Z,23.41
2022-09-12T12:37:47.871Z,23.47
2022-09-12T12:40:25.673Z,23.54
2022-09-12T12:43:01.935Z,23.58
2022-09-12T12:45:28.373Z,23.59
2022-09-12T12:48:08.317Z,23.63
2022-09-12T12:50:35.314Z,23.67
2022-09-12T12:53:07.247Z,23.68
2022-09-12T12:55:39.194Z,23.71
2022-09-12T12:58:08.905Z,23.72
2022-09-12T13:00:40.039Z,23.74
2022-09-12T13:03:24.503Z,23.79
2022-09-12T13:05:57.907Z,23.80
2022-09-12T13:08:33.828Z,23.85
2022-09-12T13:11:07.790Z,23.94
2022-09-12T13:13:50.299Z,23.88
2022-09-12T13:16:52.207Z,23.91
2022-09-12T13:19:35.791Z,23.95
2022-09-12T13:22:06.616Z,23.99
2022-09-12T13:24:33.597Z,24.05
2022-09-12T13:27:00.746Z,24.06
2022-09-12T13:29:28.411Z,24.09
2022-09-12T13:31:59.370Z,24.13
2022-09-12T13:34:30.389Z,24.17
2022-09-12T13:37:32.397Z,24.23
2022-09-12T13:40:24.204Z,24.24
2022-09-12T13:43:14.928Z,24.28
2022-09-12T13:45:45.927Z,24.30
2022-09-12T13:48:22.184Z,24.30
2022-09-12T13:50:59.250Z,24.32
2022-09-12T13:53:29.885Z,24.33
2022-09-12T13:55:59.897Z,24.33
2022-09-12T13:58:29.361Z,24.33
2022-09-12T14:01:17.536Z,24.36
2022-09-12T14:04:15.478Z,24.37
2022-09-12T14:06:51.147Z,24.38
2022-09-12T14:09:29.948Z,24.40
2022-09-12T14:11:58.409Z,24.45
2022-09-12T14:14:34.305Z,24.53
2022-09-12T14:17:01.365Z,24.53
2022-09-12T14:19:29.248Z,24.55
2022-09-12T14:21:57.607Z,24.52
2022-09-12T14:24:24.669Z,24.56
2022-09-12T14:26:56.900Z,24.59
2022-09-12T14:29:25.521Z,24.59
2022-09-12T14:32:04.111Z,24.61
2022-09-12T14:34:31.296Z,24.61
2022-09-12T14:36:58.665Z,24.65
2022-09-12T14:39:38.052Z,24.63
2022-09-12T14:42:12.591Z,24.58
2022-09-12T14:44:39.495Z,24.57
2022-09-12T14:47:21.384Z,24.58
2022-09-12T14:49:50.261Z,24.62
2022-09-12T14:52:27.868Z,24.63
2022-09-12T14:55:18.311Z,24.65
2022-09-12T14:57:45.957Z,24.66
2022-09-12T15:00:21.230Z,24.66
2022-09-12T15:02:50.428Z,24.67
2022-09-12T15:05:20.286Z,24.64
2022-09-12T15:08:15.970Z,24.65
2022-09-12T15:10:42.575Z,24.62
2022-09-12T15:13:14.087Z,24.58
2022-09-12T15:15:43.945Z,24.57
2022-09-12T15:18:11.201Z,24.56
2022-09-12T15:20:39.752Z,24.53
2022-09-12T15:23:14.052Z,24.53
2022-09-12T15:25:41.289Z,24.50
2022-09-12T15:28:24.179Z,24.45
2022-09-12T15:30:53.070Z,24.44
2022-09-12T15:33:22.819Z,24.40
2022-09-12T15:35:50.031Z,24.41
2022-09-12T15:38:17.141Z,24.38
2022-09-12T15:40:46.292Z,24.33
2022-09-12T15:43:14.988Z,24.34
2022-09-12T15:45:43.389Z,24.32
2022-09-12T15:48:10.344Z,24.30
2022-09-12T15:50:37.308Z,24.30
2022-09-12T15:53:04.179Z,24.31
2022-09-12T15:55:32.590Z,24.28
2022-09-12T15:58:04.882Z,24.27
2022-09-12T16:00:33.855Z,24.28
2022-09-12T16:03:02.352Z,24.27
2022-09-12T16:05:29.646Z,24.27
2022-09-12T16:07:56.139Z,24.28
2022-09-12T16:10:26.871Z,24.29
2022-09-12T16:12:53.629Z,24.29
2022-09-12T16:15:22.940Z,24.28
2022-09-12T16:17:49.637Z,24.25
2022-09-12T16:20:16.489Z,24.22
2022-09-12T16:22:43.684Z,24.22
2022-09-12T16:25:10.364Z,24.19
2022-09-12T16:27:38.009Z,24.17
2022-09-12T16:30:06.487Z,24.14
2022-09-12T16:32:33.254Z,24.12
2022-09-12T16:35:00.059Z,24.08
2022-09-12T16:37:26.900Z,24.04
2022-09-12T16:39:53.753Z,23.99
2022-09-12T16:42:21.727Z,23.97
2022-09-12T16:44:48.568Z,23.94
2022-09-12T16:47:15.617Z,23.91
2022-09-12T16:49:42.232Z,23.88
2022-09-12T16:52:09.067Z,23.86
2022-09-12T16:54:38.760Z,23.82
2022-09-12T16:57:06.494Z,23.81
2022-09-12T16:59:33.054Z,23.78
2022-09-12T17:01:59.768Z,23.75
2022-09-12T17:04:26.342Z,23.71
2022-09-12T17:06:52.999Z,23.70
2022-09-12T17:09:19.800Z,23.68
2022-09-12T17:11:49.333Z,23.64
2022-09-12T17:14:16.155Z,23.60
2022-09-12T17:16:50.871Z,23.57
2022-09-12T17:19:26.415Z,23.54
2022-09-12T17:21:53.588Z,23.51
2022-09-12T17:24:20.758Z,23.46
2022-09-12T17:26:47.608Z,23.42
2022-09-12T17:29:14.755Z,23.39
2022-09-12T17:31:42.822Z,23.37
2022-09-12T17:34:14.231Z,23.33
2022-09-12T17:36:44.247Z,23.29
2022-09-12T17:39:11.947Z,23.21
2022-09-12T17:41:38.916Z,23.14
2022-09-12T17:44:07.526Z,23.08
2022-09-12T17:46:36.856Z,23.02
2022-09-12T17:49:13.949Z,22.99
2022-09-12T17:51:41.128Z,22.96
2022-09-12T17:54:11.786Z,22.93
2022-09-12T17:56:39.754Z,22.91
2022-09-12T17:59:08.647Z,22.90
2022-09-12T18:01:53.726Z,22.86
2022-09-12T18:04:20.379Z,22.82
2022-09-12T18:06:50.867Z,22.78
2022-09-12T18:09:22.096Z,22.74
2022-09-12T18:11:50.549Z,22.70
2022-09-12T18:14:18.468Z,22.67
2022-09-12T18:16:46.227Z,22.65
2022-09-12T18:19:14.265Z,22.59
2022-09-12T18:21:41.360Z,22.53
2022-09-12T18:24:09.510Z,22.43
2022-09-12T18:26:36.174Z,22.34
2022-09-12T18:29:02.915Z,22.25
2022-09-12T18:31:30.649Z,22.20
2022-09-12T18:34:00.306Z,22.17
2022-09-12T18:36:27.203Z,22.11
2022-09-12T18:38:53.723Z,22.05
2022-09-12T18:41:22.690Z,22.00
2022-09-12T18:43:54.607Z,21.96
2022-09-12T18:46:21.312Z,21.92
2022-09-12T18:48:47.886Z,21.90
2022-09-12T18:51:17.892Z,21.88
2022-09-12T18:53:49.441Z,21.84
2022-09-12T18:56:16.158Z,21.81
2022-09-12T18:58:43.881Z,21.78
2022-09-12T19:01:15.705Z,21.74
2022-09-12T19:03:42.374Z,21.71
2022-09-12T19:06:11.697Z,21.68
2022-09-12T19:08:39.012Z,21.66
2022-09-12T19:11:05.837Z,21.62
2022-09-12T19:13:35.870Z,21.58
2022-09-12T19:16:04.067Z,21.55
2022-09-12T19:18:31.526Z,21.53
2022-09-12T19:20:58.038Z,21.50
2022-09-12T19:23:24.613Z,21.46
2022-09-12T19:25:58.932Z,21.43
2022-09-12T19:28:26.608Z,21.41
2022-09-12T19:30:53.789Z,21.38
2022-09-12T19:33:21.075Z,21.34
2022-09-12T19:35:47.966Z,21.31
2022-09-12T19:38:14.905Z,21.32
2022-09-12T19:40:43.217Z,21.26
2022-09-12T19:43:10.242Z,21.12
2022-09-12T19:45:37.143Z,21.05
2022-09-12T19:48:03.752Z,20.99
2022-09-12T19:50:33.708Z,20.91
2022-09-12T19:53:00.344Z,20.86
2022-09-12T19:55:26.848Z,20.81
2022-09-12T19:57:54.331Z,20.78
2022-09-12T20:00:20.956Z,20.76
2022-09-12T20:02:51.785Z,20.73
2022-09-12T20:05:19.922Z,20.72
2022-09-12T20:07:46.992Z,20.71
2022-09-12T20:10:14.278Z,20.73
2022-09-12T20:12:41.547Z,20.71
2022-09-12T20:15:08.773Z,20.68
2022-09-12T20:17:36.105Z,20.64
2022-09-12T20:20:02.779Z,20.63
2022-09-12T20:22:29.325Z,20.61
2022-09-12T20:24:56.192Z,20.56
2022-09-12T20:27:23.119Z,20.51
2022-09-12T20:29:49.691Z,20.49
2022-09-12T20:32:18.253Z,20.52
2022-09-12T20:34:44.692Z,20.55
2022-09-12T20:37:11.617Z,20.50
2022-09-12T20:39:38.251Z,20.42
2022-09-12T20:42:05.096Z,20.39
2022-09-12T20:44:31.621Z,20.39
2022-09-12T20:46:58.306Z,20.40
2022-09-12T20:49:24.899Z,20.39
2022-09-12T20:51:52.627Z,20.36
2022-09-12T20:54:19.173Z,20.31
2022-09-12T20:56:45.856Z,20.26
2022-09-12T20:59:13.005Z,20.26
2022-09-12T21:01:39.807Z,20.21
2022-09-12T21:04:06.328Z,20.19
2022-09-12T21:06:33.049Z,20.13
2022-09-12T21:09:00.823Z,20.09
2022-09-12T21:11:28.629Z,20.07
2022-09-12T21:13:55.244Z,20.07
2022-09-12T21:16:26.394Z,20.09
2022-09-12T21:18:57.154Z,20.11
2022-09-12T21:21:23.780Z,20.11
2022-09-12T21:23:51.497Z,20.14
2022-09-12T21:26:18.465Z,20.15
2022-09-12T21:28:46.685Z,20.15
2022-09-12T21:31:13.918Z,20.15
2022-09-12T21:33:42.158Z,20.11
2022-09-12T21:36:10.493Z,20.02
2022-09-12T21:38:37.820Z,20.01
2022-09-12T21:41:09.431Z,19.99
2022-09-12T21:43:36.653Z,19.99
2022-09-12T21:46:04.973Z,19.96
2022-09-12T21:48:32.062Z,19.93
2022-09-12T21:50:58.769Z,19.90
2022-09-12T21:53:25.708Z,19.90
2022-09-12T21:55:52.406Z,19.92
2022-09-12T21:58:19.299Z,19.93
2022-09-12T22:00:46.010Z,19.96
2022-09-12T22:03:13.183Z,19.95
2022-09-12T22:05:43.263Z,19.93
2022-09-12T22:08:11.524Z,19.89
2022-09-12T22:10:40.649Z,19.83
2022-09-12T22:13:07.273Z,19.80
2022-09-12T22:15:40.497Z,19.80
2022-09-12T22:18:07.881Z,19.80
2022-09-12T22:20:34.319Z,19.80
2022-09-12T22:23:24.329Z,19.79
2022-09-12T22:25:54.350Z,19.79
2022-09-12T22:28:21.410Z,19.80
2022-09-12T22:30:48.598Z,19.79
2022-09-12T22:33:15.601Z,19.79
2022-09-12T22:35:44.686Z,19.79
2022-09-12T22:38:11.381Z,19.78
2022-09-12T22:40:38.521Z,19.78
2022-09-12T22:43:05.211Z,19.78
2022-09-12T22:45:32.764Z,19.81
2022-09-12T22:48:01.031Z,19.80
2022-09-12T22:50:27.904Z,19.80
2022-09-12T22:52:54.355Z,19.79
2022-09-12T22:55:20.930Z,19.79
2022-09-12T22:57:47.798Z,19.77
2022-09-12T23:00:15.222Z,19.77
2022-09-12T23:02:41.806Z,19.77
2022-09-12T23:05:08.784Z,19.77
2022-09-12T23:07:35.868Z,19.78
2022-09-12T23:10:02.757Z,19.78
2022-09-12T23:12:29.644Z,19.78
2022-09-12T23:14:56.645Z,19.78
2022-09-12T23:17:23.261Z,19.79
2022-09-12T23:19:49.726Z,19.79
2022-09-12T23:22:16.530Z,19.79
2022-09-12T23:24:43.177Z,19.77
2022-09-12T23:27:09.807Z,19.74
2022-09-12T23:29:36.417Z,19.73
2022-09-12T23:32:03.902Z,19.72
2022-09-12T23:34:31.006Z,19.68
2022-09-12T23:36:57.694Z,19.68
2022-09-12T23:39:24.264Z,19.68
2022-09-12T23:41:50.781Z,19.68
2022-09-12T23:44:17.321Z,19.67
2022-09-12T23:46:44.007Z,19.67
2022-09-12T23:49:10.554Z,19.65
2022-09-12T23:51:37.217Z,19.65
2022-09-12T23:54:04.459Z,19.64
2022-09-12T23:56:31.002Z,19.63
2022-09-12T23:58:58.919Z,19.61
